Time;durP1;ratioP1;P1;durP2;ratioP2;P2;SDS_P1;SDS_P2;PMS_P1;PMS_P2;Temp;Humidity;BMP_temperature;BMP_pressure;BME280_temperature;BME280_humidity;BME280_pressure;Samples;Min_cycle;Max_cycle;Signal;HPM_P1;HPM_P2
2023/06/27 00:01:25;;;;;;;2.42;2.13;;;16.50;99.90;16.60;100545.00;;;;4952291;28;95646;-63
2023/06/27 00:03:51;;;;;;;3.65;2.72;;;16.50;99.90;16.60;100542.00;;;;4947528;28;90085;-63
2023/06/27 00:06:21;;;;;;;1.92;1.75;;;16.50;99.90;16.60;100542.00;;;;4952896;28;87961;-65
2023/06/27 00:08:48;;;;;;;3.95;2.90;;;16.50;99.90;16.60;100556.00;;;;4953802;28;87761;-63
2023/06/27 00:11:14;;;;;;;2.78;2.38;;;16.60;99.90;16.60;100553.00;;;;4952718;28;91268;-63
2023/06/27 00:13:41;;;;;;;3.42;2.38;;;16.60;99.90;16.70;100552.00;;;;4953138;28;118421;-63
2023/06/27 00:16:13;;;;;;;2.70;2.10;;;16.60;99.90;16.70;100547.00;;;;4952945;28;87835;-63
2023/06/27 00:18:47;;;;;;;1.65;1.55;;;16.60;99.90;16.70;100548.00;;;;4957332;28;88050;-64
2023/06/27 00:21:15;;;;;;;3.17;2.15;;;16.60;99.90;16.70;100549.00;;;;4954055;28;88531;-63
2023/06/27 00:23:42;;;;;;;2.42;2.17;;;16.60;99.90;16.70;100559.00;;;;4952556;28;88164;-63
2023/06/27 00:26:09;;;;;;;2.67;2.47;;;16.60;99.90;16.70;100557.00;;;;4955046;28;88277;-63
2023/06/27 00:28:35;;;;;;;2.55;2.35;;;16.60;99.90;16.70;100556.00;;;;4955973;28;92349;-63
2023/06/27 00:31:01;;;;;;;5.05;3.25;;;16.60;99.90;16.70;100567.00;;;;4956592;28;92954;-63
2023/06/27 00:33:26;;;;;;;2.95;2.75;;;16.60;99.90;16.70;100572.00;;;;4955564;28;109937;-64
2023/06/27 00:35:52;;;;;;;3.30;2.20;;;16.60;99.90;16.70;100560.00;;;;4951556;28;110885;-65
2023/06/27 00:38:18;;;;;;;3.47;2.00;;;16.60;99.90;16.70;100564.00;;;;4952036;28;107315;-64
2023/06/27 00:40:44;;;;;;;3.10;2.50;;;16.60;99.90;16.70;100564.00;;;;4953323;28;88436;-64
2023/06/27 00:43:09;;;;;;;3.30;1.98;;;16.60;99.90;16.70;100564.00;;;;4956256;28;105743;-64
2023/06/27 00:45:35;;;;;;;1.65;1.55;;;16.60;99.90;16.70;100568.00;;;;4957255;28;88037;-64
2023/06/27 00:48:02;;;;;;;2.28;2.08;;;16.60;99.90;16.70;100571.00;;;;4951283;28;109863;-63
2023/06/27 00:50:30;;;;;;;4.75;2.10;;;16.60;99.90;16.70;100571.00;;;;4953255;28;88285;-63
2023/06/27 00:52:58;;;;;;;3.53;2.33;;;16.60;99.90;16.70;100574.00;;;;4953151;28;88750;-63
2023/06/27 00:55:24;;;;;;;2.45;1.65;;;16.60;99.90;16.70;100583.00;;;;4937277;28;87892;-63
2023/06/27 00:57:50;;;;;;;1.63;1.30;;;16.60;99.90;16.70;100575.00;;;;4936765;28;87782;-64
2023/06/27 01:00:16;;;;;;;1.95;1.63;;;16.60;99.90;16.70;100579.00;;;;4949181;28;88510;-63
2023/06/27 01:02:45;;;;;;;3.75;1.67;;;16.60;99.90;16.70;100575.00;;;;4956829;28;88591;-63
2023/06/27 01:05:12;;;;;;;3.35;1.60;;;16.60;99.90;16.70;100578.00;;;;4950843;28;87842;-63
2023/06/27 01:07:52;;;;;;;1.65;1.33;;;16.60;99.90;16.60;100581.00;;;;4954436;28;100814;-62
2023/06/27 01:10:49;;;;;;;1.88;1.33;;;16.60;99.90;16.50;100590.00;;;;4947918;28;87902;-62
2023/06/27 01:13:20;;;;;;;1.70;1.48;;;16.50;99.90;16.50;100583.00;;;;4949415;28;108618;-62
2023/06/27 01:15:46;;;;;;;1.55;1.42;;;16.50;99.90;16.50;100590.00;;;;4936287;28;87819;-62
2023/06/27 01:18:12;;;;;;;1.73;1.60;;;16.40;99.90;16.50;100599.00;;;;4955134;28;108114;-62
2023/06/27 01:20:43;;;;;;;3.47;1.65;;;16.40;99.90;16.40;100591.00;;;;4936951;28;106678;-62
2023/06/27 01:23:32;;;;;;;1.83;1.73;;;16.40;99.90;16.40;100591.00;;;;4935240;28;88560;-62
2023/06/27 01:26:05;;;;;;;1.48;1.13;;;16.40;99.90;16.40;100590.00;;;;4953885;28;88282;-63
2023/06/27 01:28:32;;;;;;;1.58;1.00;;;16.30;99.90;16.40;100593.00;;;;4946607;28;88168;-62
2023/06/27 01:31:03;;;;;;;1.73;1.63;;;15.90;99.90;16.30;100611.00;;;;4954662;28;88835;-62
2023/06/27 01:34:07;;;;;;;2.33;1.38;;;16.30;99.90;16.20;100590.00;;;;4950684;28;88780;-63
2023/06/27 01:36:49;;;;;;;2.00;1.13;;;16.20;99.90;16.20;100597.00;;;;4936612;28;87117;-63
2023/06/27 01:39:22;;;;;;;1.40;1.30;;;16.20;99.90;16.20;100590.00;;;;4936184;28;87667;-63
2023/06/27 01:41:54;;;;;;;0.93;0.82;;;16.20;99.90;16.20;100603.00;;;;4935866;28;89165;-63
2023/06/27 01:44:22;;;;;;;0.98;0.82;;;16.10;99.90;16.10;100594.00;;;;4951640;28;88987;-63
2023/06/27 01:46:51;;;;;;;2.05;1.48;;;16.10;99.90;16.10;100599.00;;;;4934303;28;111130;-64
2023/06/27 01:49:17;;;;;;;2.92;1.50;;;16.00;99.90;16.10;100595.00;;;;4930350;28;108904;-64
2023/06/27 01:51:43;;;;;;;1.67;1.33;;;16.00;99.90;16.10;100601.00;;;;4953270;28;90715;-63
2023/06/27 01:54:09;;;;;;;1.40;1.20;;;16.00;99.90;16.10;100603.00;;;;4950081;28;117842;-64
2023/06/27 01:56:35;;;;;;;2.22;1.50;;;16.00;99.90;16.00;100610.00;;;;4951163;28;110242;-64
2023/06/27 01:59:01;;;;;;;3.47;1.27;;;16.00;99.90;16.00;100613.00;;;;4955270;28;88702;-63
2023/06/27 02:01:28;;;;;;;2.33;1.33;;;16.00;99.90;16.00;100612.00;;;;4952054;28;106613;-64
2023/06/27 02:03:53;;;;;;;2.63;1.63;;;15.90;99.90;15.90;100606.00;;;;4952080;28;88027;-63
2023/06/27 02:06:19;;;;;;;1.10;0.98;;;15.90;99.90;15.90;100617.00;;;;4959374;28;111553;-64
2023/06/27 02:08:45;;;;;;;1.10;1.00;;;15.80;99.90;15.80;100615.00;;;;4975131;28;108975;-64
2023/06/27 02:11:11;;;;;;;1.35;1.25;;;15.80;99.90;15.80;100622.00;;;;4972904;28;88398;-65
2023/06/27 02:13:37;;;;;;;1.27;0.85;;;15.70;99.90;15.70;100621.00;;;;4967078;28;88792;-64
2023/06/27 02:16:04;;;;;;;1.27;1.17;;;15.70;99.90;15.70;100621.00;;;;4970179;28;87852;-64
2023/06/27 02:18:30;;;;;;;2.00;1.42;;;15.60;99.90;15.60;100629.00;;;;4975015;28;87852;-64
2023/06/27 02:20:55;;;;;;;8.77;1.73;;;15.60;99.90;15.50;100616.00;;;;4972779;28;118160;-65
2023/06/27 02:23:21;;;;;;;1.13;1.05;;;15.50;99.90;15.50;100615.00;;;;4970262;28;117256;-65
2023/06/27 02:25:47;;;;;;;3.13;1.33;;;15.50;99.90;15.40;100620.00;;;;4974432;28;87569;-65
2023/06/27 02:28:13;;;;;;;1.38;1.20;;;15.40;99.90;15.40;100623.00;;;;4971142;28;107388;-65
2023/06/27 02:30:38;;;;;;;3.30;1.02;;;15.40;99.90;15.30;100630.00;;;;4972249;28;90176;-65
2023/06/27 02:33:04;;;;;;;2.95;1.63;;;15.30;99.90;15.30;100628.00;;;;4972920;28;117923;-65
2023/06/27 02:35:30;;;;;;;1.88;1.08;;;15.30;99.90;15.20;100631.00;;;;4972694;28;111064;-65
2023/06/27 02:37:55;;;;;;;2.33;1.10;;;15.20;99.90;15.20;100629.00;;;;4969793;28;109542;-65
2023/06/27 02:40:22;;;;;;;2.15;0.85;;;15.20;99.90;15.20;100627.00;;;;4970483;28;117580;-65
2023/06/27 02:42:48;;;;;;;1.27;1.00;;;15.20;99.90;15.20;100638.00;;;;4966983;28;88904;-65
2023/06/27 02:45:13;;;;;;;6.55;0.98;;;15.20;99.90;15.20;100627.00;;;;4972487;28;87756;-65
2023/06/27 02:47:39;;;;;;;1.85;1.30;;;15.20;99.90;15.10;100638.00;;;;4968018;28;109085;-64
2023/06/27 02:50:05;;;;;;;2.05;1.33;;;15.10;99.90;15.10;100636.00;;;;4969547;28;118174;-64
2023/06/27 02:52:31;;;;;;;1.85;1.23;;;15.10;99.90;15.10;100639.00;;;;4970122;28;104934;-65
2023/06/27 02:54:56;;;;;;;1.80;1.65;;;15.10;99.90;15.00;100642.00;;;;4968564;28;109969;-64
2023/06/27 02:57:22;;;;;;;2.28;1.55;;;15.00;99.90;15.00;100645.00;;;;4969889;28;99669;-65
2023/06/27 02:59:48;;;;;;;1.30;0.98;;;15.00;99.90;14.90;100647.00;;;;4970536;28;88686;-64
2023/06/27 03:02:13;;;;;;;1.20;0.82;;;15.00;99.90;14.90;100639.00;;;;4968398;28;95240;-64
2023/06/27 03:04:39;;;;;;;3.88;1.25;;;14.90;99.90;14.80;100645.00;;;;4971185;28;108176;-64
2023/06/27 03:07:05;;;;;;;1.27;0.88;;;14.80;99.90;14.80;100655.00;;;;4968834;28;108360;-64
2023/06/27 03:09:32;;;;;;;1.48;1.30;;;14.80;99.90;14.70;100651.00;;;;4968067;28;105059;-65
2023/06/27 03:11:58;;;;;;;2.55;1.80;;;14.70;99.90;14.70;100642.00;;;;4969908;28;88428;-64
2023/06/27 03:14:24;;;;;;;1.15;1.05;;;14.70;99.90;14.70;100651.00;;;;4968195;28;109080;-64
2023/06/27 03:16:58;;;;;;;1.88;1.33;;;14.70;99.90;14.60;100645.00;;;;4981409;28;87894;-65
2023/06/27 03:19:24;;;;;;;1.73;1.15;;;14.60;99.90;14.60;100656.00;;;;4969344;28;116642;-64
2023/06/27 03:21:50;;;;;;;1.05;0.82;;;14.60;99.90;14.60;100658.00;;;;4970678;28;95987;-64
2023/06/27 03:24:15;;;;;;;2.83;1.65;;;14.50;99.90;14.50;100658.00;;;;4968113;28;87877;-64
2023/06/27 03:26:41;;;;;;;3.40;1.50;;;14.50;99.90;14.50;100655.00;;;;4969261;28;108519;-64
2023/06/27 03:29:07;;;;;;;1.10;1.00;;;14.50;99.90;14.50;100666.00;;;;4969752;28;117800;-65
2023/06/27 03:31:32;;;;;;;2.70;1.40;;;14.50;99.90;14.50;100660.00;;;;4969997;28;116923;-66
2023/06/27 03:33:59;;;;;;;5.47;1.60;;;14.40;99.90;14.50;100657.00;;;;4969678;28;109541;-65
2023/06/27 03:36:25;;;;;;;1.75;1.35;;;14.40;99.90;14.50;100660.00;;;;4967257;28;88286;-64
2023/06/27 03:38:51;;;;;;;3.50;2.08;;;14.40;99.90;14.50;100663.00;;;;4972706;28;109009;-65
2023/06/27 03:41:18;;;;;;;1.58;1.48;;;14.50;99.90;14.50;100657.00;;;;4975320;28;87565;-65
2023/06/27 03:43:43;;;;;;;1.35;1.25;;;14.50;99.90;14.50;100662.00;;;;4974093;28;87817;-65
2023/06/27 03:46:14;;;;;;;1.60;1.50;;;14.50;99.90;14.50;100664.00;;;;4971675;28;108132;-64
2023/06/27 03:48:40;;;;;;;3.08;1.27;;;14.50;99.90;14.50;100669.00;;;;4974122;28;88453;-64
2023/06/27 03:51:05;;;;;;;2.40;1.65;;;14.50;99.90;14.60;100671.00;;;;4970819;28;104649;-66
2023/06/27 03:53:31;;;;;;;1.50;1.40;;;14.50;99.90;14.60;100673.00;;;;4971731;28;110000;-64
2023/06/27 03:55:57;;;;;;;1.73;1.63;;;14.50;99.90;14.70;100678.00;;;;4974891;28;107818;-65
2023/06/27 03:58:22;;;;;;;3.83;1.20;;;14.60;99.90;14.70;100679.00;;;;4971849;28;117117;-64
2023/06/27 04:00:53;;;;;;;4.55;1.95;;;14.60;99.90;14.70;100677.00;;;;4973940;28;117823;-65
2023/06/27 04:03:19;;;;;;;2.08;1.88;;;14.60;99.90;14.70;100678.00;;;;4971826;28;88297;-64
2023/06/27 04:05:45;;;;;;;2.30;1.42;;;14.70;99.90;14.80;100672.00;;;;4973752;28;88075;-64
2023/06/27 04:08:10;;;;;;;2.92;1.95;;;14.70;99.90;14.80;100668.00;;;;4973227;28;117498;-64
2023/06/27 04:10:36;;;;;;;1.38;1.13;;;14.70;99.90;14.90;100674.00;;;;4975110;28;117732;-64
2023/06/27 04:13:02;;;;;;;5.72;1.48;;;14.80;99.90;14.90;100671.00;;;;4975135;28;87784;-64
2023/06/27 04:15:27;;;;;;;1.48;1.23;;;14.90;99.90;15.00;100671.00;;;;4969926;28;100917;-64
2023/06/27 04:17:53;;;;;;;10.63;1.88;;;14.90;99.90;15.10;100667.00;;;;4969667;28;116910;-64
2023/06/27 04:20:19;;;;;;;1.92;1.83;;;15.00;99.90;15.20;100680.00;;;;4970400;28;118343;-64
2023/06/27 04:22:44;;;;;;;10.27;1.55;;;15.10;99.90;15.20;100680.00;;;;4973820;28;109874;-64
2023/06/27 04:25:11;;;;;;;1.25;1.00;;;15.10;99.90;15.30;100697.00;;;;4971435;28;109103;-64
2023/06/27 04:27:37;;;;;;;3.60;1.00;;;15.20;99.90;15.30;100683.00;;;;4974510;28;87897;-64
2023/06/27 04:30:04;;;;;;;3.88;2.05;;;15.20;99.90;15.30;100682.00;;;;4971116;28;87659;-64
2023/06/27 04:32:33;;;;;;;2.42;1.30;;;15.30;99.90;15.40;100677.00;;;;4970542;28;98608;-64
2023/06/27 04:34:59;;;;;;;2.55;1.25;;;15.30;99.90;15.40;100686.00;;;;4975929;28;88770;-64
2023/06/27 04:37:25;;;;;;;2.95;1.42;;;15.30;99.90;15.50;100685.00;;;;4971630;28;101904;-64
2023/06/27 04:39:53;;;;;;;5.10;1.65;;;15.40;99.90;15.60;100691.00;;;;4966230;28;117924;-64
2023/06/27 04:42:19;;;;;;;1.35;1.25;;;15.50;99.90;15.60;100684.00;;;;4968925;28;88252;-64
2023/06/27 04:44:44;;;;;;;2.83;1.35;;;15.50;99.90;15.70;100692.00;;;;4967387;28;87928;-64
2023/06/27 04:47:10;;;;;;;1.67;1.35;;;15.60;99.90;15.90;100697.00;;;;4966592;28;117872;-65
2023/06/27 04:49:36;;;;;;;1.60;1.13;;;15.70;99.90;15.90;100697.00;;;;4966559;28;117003;-64
2023/06/27 04:52:01;;;;;;;2.50;1.27;;;15.80;99.90;16.00;100693.00;;;;4969709;28;111318;-64
2023/06/27 04:54:27;;;;;;;2.10;1.23;;;15.90;99.90;16.10;100693.00;;;;4969671;28;87751;-64
2023/06/27 04:56:53;;;;;;;2.03;1.00;;;16.00;99.90;16.10;100686.00;;;;4969889;28;107089;-65
2023/06/27 04:59:19;;;;;;;2.33;1.52;;;16.00;99.90;16.10;100693.00;;;;4967834;28;117424;-64
2023/06/27 05:01:45;;;;;;;2.05;1.38;;;16.10;99.90;16.20;100687.00;;;;4968625;28;87816;-64
2023/06/27 05:04:11;;;;;;;3.50;1.30;;;16.10;99.90;16.20;100699.00;;;;4967254;28;94728;-66
2023/06/27 05:06:36;;;;;;;2.35;1.27;;;15.90;99.90;16.20;100699.00;;;;4968299;28;116959;-66
2023/06/27 05:09:03;;;;;;;1.75;1.40;;;16.10;99.90;16.30;100687.00;;;;4971560;28;114846;-65
2023/06/27 05:11:30;;;;;;;3.08;1.23;;;16.20;99.90;16.30;100690.00;;;;4971004;28;89358;-65
2023/06/27 05:13:56;;;;;;;1.40;1.27;;;16.50;99.90;16.50;100685.00;;;;4973701;28;108079;-65
2023/06/27 05:16:23;;;;;;;0.90;0.90;;;16.30;99.90;16.60;100688.00;;;;4970548;28;88599;-65
2023/06/27 05:18:49;;;;;;;4.72;1.10;;;16.50;99.90;16.80;100694.00;;;;4971627;28;117035;-66
2023/06/27 05:21:14;;;;;;;1.65;1.20;;;16.60;99.90;16.90;100694.00;;;;4973383;28;112306;-65
2023/06/27 05:23:40;;;;;;;1.52;1.00;;;16.70;99.90;17.00;100693.00;;;;4975577;28;89025;-65
2023/06/27 05:26:06;;;;;;;2.05;1.45;;;16.80;99.90;17.10;100694.00;;;;4970815;28;117763;-64
2023/06/27 05:28:33;;;;;;;1.92;0.80;;;17.00;99.90;17.20;100685.00;;;;4970349;28;117923;-65
2023/06/27 05:30:59;;;;;;;5.00;1.38;;;17.10;99.90;17.30;100690.00;;;;4974471;28;87670;-66
2023/06/27 05:33:25;;;;;;;2.95;1.35;;;17.20;99.90;17.30;100687.00;;;;4970403;28;109201;-66
2023/06/27 05:35:50;;;;;;;3.97;1.10;;;17.20;99.90;17.40;100694.00;;;;4970024;28;117824;-66
2023/06/27 05:38:16;;;;;;;2.00;1.63;;;17.30;99.90;17.40;100699.00;;;;4971010;28;88493;-66
2023/06/27 05:40:42;;;;;;;2.85;1.20;;;17.30;99.90;17.40;100707.00;;;;4971669;28;111568;-65
2023/06/27 05:43:08;;;;;;;1.25;1.20;;;17.30;99.90;17.40;100702.00;;;;4974913;28;87908;-65
2023/06/27 05:45:34;;;;;;;3.15;1.15;;;17.30;99.90;17.30;100707.00;;;;4970385;28;117807;-66
2023/06/27 05:48:00;;;;;;;1.52;0.82;;;17.30;99.90;17.30;100712.00;;;;4973302;28;117135;-65
2023/06/27 05:50:26;;;;;;;3.25;1.77;;;17.20;99.90;17.30;100708.00;;;;4970050;28;88164;-65
2023/06/27 05:52:52;;;;;;;4.30;1.05;;;17.20;99.90;17.30;100707.00;;;;4973658;28;88572;-66
2023/06/27 05:55:18;;;;;;;2.42;1.40;;;17.20;99.90;17.40;100709.00;;;;4972179;28;118601;-65
2023/06/27 05:57:43;;;;;;;2.75;0.95;;;17.30;99.90;17.50;100709.00;;;;4971585;28;117879;-65
2023/06/27 06:00:10;;;;;;;1.88;1.05;;;17.30;99.90;17.60;100713.00;;;;4969464;28;109736;-66
2023/06/27 06:02:37;;;;;;;1.65;1.25;;;17.40;99.90;17.80;100717.00;;;;4972044;28;88079;-65
2023/06/27 06:05:05;;;;;;;8.60;1.38;;;17.60;99.90;17.90;100711.00;;;;4970256;28;88180;-66
2023/06/27 06:07:31;;;;;;;4.38;1.58;;;17.70;99.90;18.00;100717.00;;;;4974740;28;88155;-66
2023/06/27 06:09:57;;;;;;;1.23;0.80;;;17.90;99.90;18.10;100719.00;;;;4970886;28;87976;-65
2023/06/27 06:12:23;;;;;;;2.67;0.80;;;17.90;99.90;18.20;100715.00;;;;4970103;28;108148;-65
2023/06/27 06:14:48;;;;;;;1.98;1.15;;;18.10;99.90;18.40;100708.00;;;;4966801;28;107289;-65
2023/06/27 06:17:14;;;;;;;2.95;1.38;;;18.20;99.90;18.50;100714.00;;;;4970636;28;99315;-66
2023/06/27 06:19:40;;;;;;;2.42;1.42;;;18.40;99.90;18.60;100726.00;;;;4971138;28;111352;-65
2023/06/27 06:22:06;;;;;;;1.50;0.98;;;18.40;99.90;18.70;100718.00;;;;4966592;28;99313;-65
2023/06/27 06:24:32;;;;;;;1.48;0.98;;;18.50;99.90;18.70;100722.00;;;;4969634;28;116853;-65
2023/06/27 06:26:57;;;;;;;0.73;0.60;;;18.60;99.90;18.80;100723.00;;;;4973146;28;88495;-65
2023/06/27 06:29:23;;;;;;;2.65;1.08;;;18.70;99.90;18.90;100710.00;;;;4970406;28;109385;-66
2023/06/27 06:31:49;;;;;;;5.72;1.27;;;18.80;99.90;19.00;100720.00;;;;4970379;28;107663;-66
2023/06/27 06:34:14;;;;;;;2.58;1.70;;;18.90;99.90;19.00;100715.00;;;;4971565;28;117778;-66
2023/06/27 06:36:41;;;;;;;2.20;1.30;;;18.90;99.90;19.10;100709.00;;;;4971327;28;116897;-65
2023/06/27 06:39:06;;;;;;;2.60;1.27;;;19.10;99.90;19.20;100715.00;;;;4969756;28;87830;-66
2023/06/27 06:41:32;;;;;;;1.15;1.05;;;19.10;99.90;19.20;100714.00;;;;4972534;28;108469;-66
2023/06/27 06:43:58;;;;;;;2.20;1.35;;;19.20;99.90;19.30;100725.00;;;;4971568;28;115569;-65
2023/06/27 06:46:23;;;;;;;2.53;1.58;;;19.20;99.90;19.30;100727.00;;;;4969130;28;117475;-66
2023/06/27 06:48:50;;;;;;;7.63;1.35;;;19.20;99.90;19.40;100728.00;;;;4974184;28;87681;-66
2023/06/27 06:51:16;;;;;;;1.55;0.85;;;19.30;99.90;19.50;100735.00;;;;4970081;28;87630;-66
2023/06/27 06:53:42;;;;;;;0.70;0.70;;;19.40;99.90;19.70;100727.00;;;;4973358;28;87390;-66
2023/06/27 06:56:07;;;;;;;1.77;1.00;;;19.60;99.90;19.90;100738.00;;;;4968769;28;116037;-66
2023/06/27 06:58:33;;;;;;;0.95;0.35;;;19.70;99.90;19.90;100729.00;;;;4970316;28;110724;-65
2023/06/27 07:00:59;;;;;;;1.00;0.55;;;19.80;99.90;19.90;100730.00;;;;4968086;28;88902;-65
2023/06/27 07:03:24;;;;;;;0.60;0.50;;;19.80;99.90;20.00;100735.00;;;;4969312;28;111119;-65
2023/06/27 07:05:50;;;;;;;1.23;0.77;;;19.80;99.90;20.10;100731.00;;;;4969651;28;116765;-65
2023/06/27 07:08:16;;;;;;;0.68;0.65;;;20.00;99.90;20.20;100722.00;;;;4965704;28;87784;-65
2023/06/27 07:10:41;;;;;;;2.97;0.55;;;20.00;99.90;20.40;100724.00;;;;4975707;28;107240;-66
2023/06/27 07:13:07;;;;;;;1.23;0.70;;;20.20;99.90;20.70;100724.00;;;;4969750;28;117182;-65
2023/06/27 07:15:33;;;;;;;0.60;0.60;;;20.40;99.90;20.90;100720.00;;;;4975976;28;101132;-65
2023/06/27 07:17:59;;;;;;;1.23;0.75;;;20.70;99.90;21.20;100729.00;;;;4970590;28;87531;-65
2023/06/27 07:20:25;;;;;;;2.30;0.95;;;20.90;99.90;21.30;100723.00;;;;4969748;28;108408;-64
2023/06/27 07:22:51;;;;;;;1.75;1.00;;;21.10;99.90;21.30;100732.00;;;;4972080;28;100664;-65
2023/06/27 07:25:18;;;;;;;1.65;1.02;;;21.10;98.30;21.10;100730.00;;;;4971002;28;88750;-65
2023/06/27 07:27:44;;;;;;;0.50;0.50;;;21.10;97.50;21.10;100723.00;;;;4974381;28;87795;-66
2023/06/27 07:30:11;;;;;;;0.43;0.40;;;20.90;97.70;21.10;100732.00;;;;4968377;28;87938;-65
2023/06/27 07:32:37;;;;;;;2.15;0.43;;;21.00;96.80;21.10;100731.00;;;;4973549;28;88593;-65
2023/06/27 07:35:04;;;;;;;0.95;0.57;;;21.00;96.90;21.40;100720.00;;;;4970471;28;116421;-65
2023/06/27 07:37:30;;;;;;;5.47;1.05;;;21.20;97.60;21.80;100731.00;;;;4969672;28;87805;-66
2023/06/27 07:39:57;;;;;;;0.80;0.80;;;21.50;96.70;22.10;100719.00;;;;4971278;28;87924;-65
2023/06/27 07:42:23;;;;;;;1.25;1.08;;;21.80;96.10;22.10;100725.00;;;;4972661;28;88208;-65
2023/06/27 07:44:49;;;;;;;1.92;1.15;;;22.00;93.80;21.90;100724.00;;;;4957004;28;87833;-65
2023/06/27 07:47:20;;;;;;;2.47;1.00;;;21.80;92.70;21.70;100723.00;;;;4966615;28;109945;-65
2023/06/27 07:49:46;;;;;;;4.15;1.30;;;21.60;92.30;21.60;100724.00;;;;4967070;28;109449;-65
2023/06/27 07:52:11;;;;;;;5.38;0.60;;;21.60;91.70;21.60;100718.00;;;;4972310;28;117404;-65
2023/06/27 07:54:38;;;;;;;1.17;0.40;;;21.50;91.90;21.80;100711.00;;;;4971509;28;88484;-65
2023/06/27 07:57:06;;;;;;;1.85;0.63;;;21.60;91.30;21.90;100713.00;;;;4971744;28;95243;-65
2023/06/27 07:59:31;;;;;;;0.52;0.43;;;21.80;90.20;22.10;100716.00;;;;4967799;28;87835;-65
2023/06/27 08:01:58;;;;;;;2.28;0.80;;;21.90;88.00;22.20;100714.00;;;;4967700;28;118333;-65
2023/06/27 08:04:23;;;;;;;2.03;0.70;;;22.00;86.80;22.40;100714.00;;;;4971610;28;117832;-64
2023/06/27 08:06:49;;;;;;;5.97;0.85;;;22.20;87.80;22.50;100713.00;;;;4971715;28;97913;-64
2023/06/27 08:09:15;;;;;;;2.08;0.60;;;22.40;85.70;22.60;100714.00;;;;4971447;28;88723;-65
2023/06/27 08:11:41;;;;;;;1.10;0.70;;;22.40;78.10;22.60;100712.00;;;;4971112;28;116793;-65
2023/06/27 08:14:07;;;;;;;1.02;0.45;;;22.40;78.50;22.70;100717.00;;;;4966229;28;116710;-65
2023/06/27 08:16:35;;;;;;;1.30;0.43;;;22.50;79.20;22.80;100721.00;;;;4967702;28;104620;-66
2023/06/27 08:19:02;;;;;;;0.82;0.40;;;22.60;79.60;23.10;100705.00;;;;4966662;28;87856;-65
2023/06/27 08:21:28;;;;;;;1.13;0.60;;;22.80;79.80;23.30;100710.00;;;;4970493;28;90525;-65
2023/06/27 08:23:54;;;;;;;2.38;0.20;;;23.10;78.10;23.40;100702.00;;;;4966026;28;88612;-65
2023/06/27 08:26:19;;;;;;;2.30;0.77;;;23.20;74.50;23.50;100711.00;;;;4965137;28;99423;-63
2023/06/27 08:28:45;;;;;;;1.50;0.88;;;23.30;70.80;23.50;100706.00;;;;4973906;28;90869;-67
2023/06/27 08:31:12;;;;;;;4.28;0.65;;;23.40;70.20;23.60;100707.00;;;;4972861;28;88082;-64
2023/06/27 08:33:38;;;;;;;1.48;0.65;;;23.40;71.20;23.40;100710.00;;;;4973134;28;87784;-64
2023/06/27 08:36:04;;;;;;;1.42;0.43;;;23.40;68.40;23.00;100710.00;;;;4973418;28;87840;-64
2023/06/27 08:38:30;;;;;;;1.38;0.60;;;23.10;67.90;22.60;100715.00;;;;4973425;28;94402;-65
2023/06/27 08:40:55;;;;;;;1.08;0.68;;;22.70;68.70;22.30;100715.00;;;;4971908;28;111357;-65
2023/06/27 08:43:22;;;;;;;0.40;0.35;;;22.40;69.40;22.00;100719.00;;;;4975492;28;104152;-65
2023/06/27 08:45:49;;;;;;;0.43;0.40;;;22.10;70.10;21.70;100716.00;;;;4985564;28;87742;-65
2023/06/27 08:48:17;;;;;;;1.23;0.93;;;21.70;70.70;21.30;100711.00;;;;4964879;28;87858;-64
2023/06/27 08:50:43;;;;;;;2.13;0.20;;;21.40;71.90;21.10;100709.00;;;;4970860;28;88702;-64
2023/06/27 08:53:19;;;;;;;0.50;0.50;;;21.20;73.60;21.20;100704.00;;;;4973177;28;87970;-65
2023/06/27 08:56:02;;;;;;;5.47;0.75;;;21.10;75.40;21.40;100696.00;;;;4977941;28;87189;-63
2023/06/27 08:58:37;;;;;;;2.22;0.55;;;21.30;75.80;21.70;100689.00;;;;4974070;28;87537;-65
2023/06/27 09:01:03;;;;;;;0.57;0.40;;;21.40;75.40;22.00;100693.00;;;;4977584;28;108052;-65
2023/06/27 09:03:29;;;;;;;0.60;0.30;;;21.70;72.90;22.20;100692.00;;;;4984678;28;116379;-65
2023/06/27 09:05:55;;;;;;;0.95;0.40;;;21.90;73.00;22.50;100685.00;;;;4975618;28;87659;-65
2023/06/27 09:08:21;;;;;;;0.73;0.63;;;22.20;70.30;22.70;100677.00;;;;4975273;28;100222;-65
2023/06/27 09:10:47;;;;;;;0.85;0.60;;;22.40;69.00;22.80;100678.00;;;;4973661;28;89214;-65
2023/06/27 09:13:13;;;;;;;1.10;0.50;;;22.50;67.60;22.70;100680.00;;;;4968706;28;118258;-65
2023/06/27 09:15:39;;;;;;;3.50;0.40;;;22.60;67.20;22.70;100671.00;;;;4978365;28;88120;-65
2023/06/27 09:18:05;;;;;;;1.75;0.60;;;22.50;66.90;22.80;100683.00;;;;4973579;28;108806;-64
2023/06/27 09:20:30;;;;;;;2.70;0.50;;;22.60;67.80;23.00;100686.00;;;;4966284;28;116054;-65
2023/06/27 09:22:57;;;;;;;1.35;0.90;;;22.70;67.40;23.20;100688.00;;;;4970589;28;109647;-65
2023/06/27 09:25:24;;;;;;;2.13;0.30;;;22.90;66.30;23.40;100684.00;;;;4971466;28;88044;-64
2023/06/27 09:27:50;;;;;;;0.20;0.20;;;23.20;65.60;23.70;100671.00;;;;4974739;28;88971;-65
2023/06/27 09:30:17;;;;;;;0.43;0.30;;;23.40;64.50;23.90;100679.00;;;;4975711;28;103010;-65
2023/06/27 09:33:00;;;;;;;3.22;0.55;;;23.60;62.10;24.00;100686.00;;;;4971470;28;88291;-65
2023/06/27 09:35:27;;;;;;;4.65;0.40;;;23.80;61.60;24.00;100684.00;;;;4974717;28;108327;-65
2023/06/27 09:38:08;;;;;;;2.28;0.90;;;23.80;59.90;24.10;100676.00;;;;4972597;28;89480;-65
2023/06/27 09:40:35;;;;;;;1.42;0.30;;;23.80;60.50;24.20;100675.00;;;;4975981;28;89011;-64
2023/06/27 09:43:01;;;;;;;5.25;0.50;;;24.00;59.70;24.40;100676.00;;;;4974818;28;87689;-65
2023/06/27 09:45:29;;;;;;;0.98;0.43;;;24.10;58.50;24.60;100666.00;;;;4972529;28;111748;-65
2023/06/27 09:47:55;;;;;;;0.85;0.57;;;24.30;58.40;24.60;100658.00;;;;4977095;28;87980;-65
2023/06/27 09:50:28;;;;;;;0.98;0.32;;;24.30;57.90;24.70;100662.00;;;;4976303;28;108251;-65
2023/06/27 09:52:59;;;;;;;0.38;0.30;;;24.40;58.60;24.60;100655.00;;;;4975131;28;92037;-65
2023/06/27 09:55:25;;;;;;;0.32;0.32;;;24.40;57.70;24.60;100665.00;;;;4980036;28;87682;-65
2023/06/27 09:57:52;;;;;;;0.75;0.40;;;24.40;56.70;24.60;100655.00;;;;4976984;28;98292;-64
2023/06/27 10:00:22;;;;;;;0.40;0.40;;;24.40;54.30;24.50;100659.00;;;;4975370;28;88583;-65
2023/06/27 10:02:50;;;;;;;3.58;0.88;;;24.30;54.70;24.40;100645.00;;;;4971741;28;87964;-65
2023/06/27 10:05:19;;;;;;;0.50;0.32;;;24.20;54.30;24.20;100643.00;;;;4973458;28;87882;-64
2023/06/27 10:07:47;;;;;;;0.52;0.32;;;24.00;54.60;24.10;100641.00;;;;4968310;28;88060;-64
2023/06/27 10:10:14;;;;;;;0.20;0.20;;;23.90;55.00;24.10;100639.00;;;;4971759;28;107330;-64
2023/06/27 10:12:42;;;;;;;0.68;0.50;;;23.80;56.10;24.30;100645.00;;;;4971990;28;88454;-65
2023/06/27 10:15:09;;;;;;;0.20;0.20;;;24.00;56.30;24.50;100653.00;;;;4972770;28;90641;-65
2023/06/27 10:17:35;;;;;;;0.65;0.45;;;24.10;56.30;24.40;100649.00;;;;4971668;28;88888;-65
2023/06/27 10:20:11;;;;;;;0.60;0.50;;;24.10;54.30;24.10;100645.00;;;;4972360;28;89069;-66
2023/06/27 10:22:41;;;;;;;0.20;0.20;;;24.00;54.60;24.00;100640.00;;;;4970963;28;88106;-64
2023/06/27 10:25:08;;;;;;;0.88;0.40;;;23.80;55.40;23.90;100651.00;;;;4975527;28;87875;-64
2023/06/27 10:27:38;;;;;;;0.32;0.32;;;23.70;55.90;24.00;100640.00;;;;4971234;28;103673;-64
2023/06/27 10:30:38;;;;;;;0.25;0.25;;;23.70;55.60;24.20;100643.00;;;;4972989;28;88625;-64
2023/06/27 10:33:31;;;;;;;0.30;0.30;;;23.80;56.00;24.50;100648.00;;;;4957074;28;102236;-67
2023/06/27 10:36:01;;;;;;;1.10;0.47;;;24.00;55.80;24.60;100644.00;;;;4989508;27;87379;-68
2023/06/27 10:38:40;;;;;;;1.35;0.70;;;24.20;54.40;24.70;100653.00;;;;4972020;28;88256;-67
2023/06/27 10:41:11;;;;;;;0.40;0.38;;;24.30;53.30;24.70;100635.00;;;;4970631;28;88242;-67
2023/06/27 10:43:51;;;;;;;0.20;0.20;;;24.30;53.50;24.70;100638.00;;;;4970115;28;88845;-67
2023/06/27 10:46:26;;;;;;;0.35;0.30;;;24.40;53.70;24.90;100629.00;;;;4974502;28;87780;-68